Time;durP1;ratioP1;P1;durP2;ratioP2;P2;SDS_P1;SDS_P2;PMS_P1;PMS_P2;Temp;Humidity;BMP_temperature;BMP_pressure;BME280_temperature;BME280_humidity;BME280_pressure;Samples;Min_cycle;Max_cycle;Signal;HPM_P1;HPM_P2
2021/12/29 00:00:55;;;;;;;;;;;;;;;7.66;53.86;98182.97;4482932;32;34506;-84
2021/12/29 00:03:22;;;;;;;;;;;;;;;8.69;51.25;98188.84;4482048;32;33387;-86
2021/12/29 00:05:49;;;;;;;;;;;;;;;8.55;51.17;98188.75;4483557;32;34115;-84
2021/12/29 00:08:17;;;;;;;;;;;;;;;9.39;49.26;98186.44;4482223;32;35512;-86
2021/12/29 00:10:46;;;;;;;;;;;;;;;9.52;48.99;98192.53;4481876;32;35072;-87
2021/12/29 00:13:13;;;;;;;;;;;;;;;8.36;51.45;98190.34;4474075;32;32988;-84
2021/12/29 00:15:41;;;;;;;;;;;;;;;6.77;55.86;98192.34;4483422;32;34054;-84
2021/12/29 00:18:13;;;;;;;;;;;;;;;7.30;55.12;98193.78;4481844;32;34092;-84
2021/12/29 00:20:40;;;;;;;;;;;;;;;7.77;53.43;98183.94;4480058;32;34029;-85
2021/12/29 00:23:08;;;;;;;;;;;;;;;6.42;57.11;98188.47;4482850;32;34291;-83
2021/12/29 00:25:39;;;;;;;;;;;;;;;7.74;53.84;98181.31;4480889;32;33869;-86
2021/12/29 00:28:06;;;;;;;;;;;;;;;7.37;55.04;98180.13;4476331;32;34291;-86
2021/12/29 00:30:33;;;;;;;;;;;;;;;8.59;51.99;98177.56;4480252;32;34880;-86
2021/12/29 00:33:04;;;;;;;;;;;;;;;8.14;52.55;98168.69;4473447;31;33456;-86
2021/12/29 00:35:38;;;;;;;;;;;;;;;6.80;56.48;98169.22;4477716;32;34252;-85
2021/12/29 00:38:10;;;;;;;;;;;;;;;7.73;53.93;98156.37;4482581;32;32505;-86
2021/12/29 00:40:40;;;;;;;;;;;;;;;6.58;57.35;98164.63;4482923;32;33848;-86
2021/12/29 00:43:20;;;;;;;;;;;;;;;7.64;54.47;98156.28;4483471;32;32900;-86
2021/12/29 00:45:50;;;;;;;;;;;;;;;6.74;56.58;98151.13;4481623;32;34950;-86
2021/12/29 00:48:19;;;;;;;;;;;;;;;7.59;54.29;98163.13;4480729;32;35289;-85
2021/12/29 00:50:46;;;;;;;;;;;;;;;8.33;52.60;98155.87;4481507;31;33872;-84
2021/12/29 00:53:14;;;;;;;;;;;;;;;8.25;52.78;98159.28;4483219;32;33627;-84
2021/12/29 00:55:41;;;;;;;;;;;;;;;8.10;53.40;98153.16;4475807;32;33473;-86
2021/12/29 00:58:08;;;;;;;;;;;;;;;8.93;50.65;98147.56;4467612;32;33908;-86
2021/12/29 01:00:41;;;;;;;;;;;;;;;9.18;49.95;98151.06;4468038;32;33673;-84
2021/12/29 01:03:09;;;;;;;;;;;;;;;7.97;52.88;98147.94;4466475;32;34360;-85
2021/12/29 01:05:36;;;;;;;;;;;;;;;7.63;54.04;98146.81;4478611;32;34379;-85
2021/12/29 01:08:04;;;;;;;;;;;;;;;8.24;51.89;98147.25;4474459;32;34595;-84
2021/12/29 01:10:31;;;;;;;;;;;;;;;8.01;53.06;98143.66;4477686;32;34098;-85
2021/12/29 01:13:01;;;;;;;;;;;;;;;7.50;54.80;98143.28;4482824;32;33381;-84
2021/12/29 01:15:31;;;;;;;;;;;;;;;8.59;51.51;98138.81;4482302;32;33757;-83
2021/12/29 01:18:02;;;;;;;;;;;;;;;8.84;50.69;98141.50;4482047;32;34896;-84
2021/12/29 01:20:30;;;;;;;;;;;;;;;8.60;51.30;98144.84;4483054;32;33748;-84
2021/12/29 01:22:58;;;;;;;;;;;;;;;8.95;50.08;98140.69;4481207;32;34040;-83
2021/12/29 01:25:26;;;;;;;;;;;;;;;8.45;51.81;98140.50;4481136;32;34242;-83
2021/12/29 01:27:53;;;;;;;;;;;;;;;8.35;51.93;98136.13;4482622;32;34006;-85
2021/12/29 01:30:20;;;;;;;;;;;;;;;8.38;51.79;98124.13;4483054;32;34794;-83
2021/12/29 01:32:48;;;;;;;;;;;;;;;7.77;53.53;98126.31;4481197;32;34318;-85
2021/12/29 01:35:15;;;;;;;;;;;;;;;6.75;55.86;98132.25;4482650;32;35119;-84
2021/12/29 01:37:42;;;;;;;;;;;;;;;7.76;53.66;98135.72;4482975;32;35503;-84
2021/12/29 01:40:11;;;;;;;;;;;;;;;8.53;51.86;98142.25;4482972;32;35208;-84
2021/12/29 01:42:39;;;;;;;;;;;;;;;8.84;51.20;98150.13;4481795;32;33451;-84
2021/12/29 01:45:06;;;;;;;;;;;;;;;9.66;49.39;98146.81;4483188;32;35598;-83
2021/12/29 01:47:34;;;;;;;;;;;;;;;9.89;48.40;98140.78;4482835;32;34463;-83
2021/12/29 01:50:01;;;;;;;;;;;;;;;9.16;49.55;98145.03;4482496;32;34907;-85
2021/12/29 01:52:36;;;;;;;;;;;;;;;9.30;48.87;98141.63;4482670;32;33070;-83
2021/12/29 01:55:08;;;;;;;;;;;;;;;8.68;50.51;98153.53;4466736;32;34397;-84
2021/12/29 01:57:35;;;;;;;;;;;;;;;9.77;48.19;98161.47;4480800;32;34737;-84
2021/12/29 02:00:03;;;;;;;;;;;;;;;10.06;47.76;98149.37;4482014;32;34444;-83
2021/12/29 02:02:38;;;;;;;;;;;;;;;10.48;46.47;98153.59;4483111;32;34113;-84
2021/12/29 02:05:05;;;;;;;;;;;;;;;10.57;46.16;98152.75;4484059;32;34200;-84
2021/12/29 02:07:33;;;;;;;;;;;;;;;10.57;46.06;98147.56;4483131;32;35132;-84
2021/12/29 02:10:00;;;;;;;;;;;;;;;10.65;45.88;98148.37;4482535;32;33433;-84
2021/12/29 02:12:27;;;;;;;;;;;;;;;10.57;45.79;98147.56;4483348;32;33106;-85
2021/12/29 02:14:55;;;;;;;;;;;;;;;9.99;47.22;98143.31;4484156;32;34313;-84
2021/12/29 02:17:22;;;;;;;;;;;;;;;9.41;48.29;98152.84;4470245;32;34101;-86
2021/12/29 02:19:51;;;;;;;;;;;;;;;10.03;47.15;98139.00;4484013;32;34208;-84
2021/12/29 02:27:46;;;;;;;;;;;;;;;9.76;47.75;98155.44;4482718;32;35436;-83
2021/12/29 02:30:14;;;;;;;;;;;;;;;9.49;48.32;98148.53;4475455;32;35247;-84
2021/12/29 02:32:41;;;;;;;;;;;;;;;9.34;49.05;98151.09;4483817;32;34204;-85
2021/12/29 02:35:09;;;;;;;;;;;;;;;9.17;49.55;98151.94;4483825;32;34137;-85
2021/12/29 02:37:38;;;;;;;;;;;;;;;9.77;47.91;98148.53;4483467;32;34016;-84
2021/12/29 02:40:05;;;;;;;;;;;;;;;8.53;51.02;98165.50;4484079;32;34958;-85
2021/12/29 02:42:39;;;;;;;;;;;;;;;8.79;50.57;98157.00;4484142;32;33525;-85
2021/12/29 02:45:09;;;;;;;;;;;;;;;8.65;50.81;98169.00;4483952;32;33852;-85
2021/12/29 02:47:36;;;;;;;;;;;;;;;8.53;51.13;98167.22;4482444;32;34293;-85
2021/12/29 02:50:03;;;;;;;;;;;;;;;7.93;52.93;98160.81;4483062;31;33870;-84
2021/12/29 02:52:31;;;;;;;;;;;;;;;7.72;53.58;98159.78;4484132;32;33165;-85
2021/12/29 02:54:58;;;;;;;;;;;;;;;8.21;52.21;98162.72;4483919;32;34147;-84
2021/12/29 02:57:25;;;;;;;;;;;;;;;9.30;49.80;98164.87;4468413;32;35158;-84
2021/12/29 02:59:53;;;;;;;;;;;;;;;8.61;51.39;98167.28;4481173;32;34614;-85
2021/12/29 03:02:20;;;;;;;;;;;;;;;8.94;50.53;98167.41;4483427;32;33128;-85
2021/12/29 03:04:48;;;;;;;;;;;;;;;8.81;50.94;98175.09;4483989;31;33983;-85
2021/12/29 03:07:15;;;;;;;;;;;;;;;8.08;52.84;98168.66;4483829;32;34551;-84
2021/12/29 03:09:43;;;;;;;;;;;;;;;8.01;53.38;98164.31;4483178;32;33877;-84
2021/12/29 03:12:10;;;;;;;;;;;;;;;8.61;51.49;98162.09;4469981;32;33861;-84
2021/12/29 03:14:37;;;;;;;;;;;;;;;8.79;50.76;98151.84;4483823;32;34193;-85
2021/12/29 03:17:04;;;;;;;;;;;;;;;8.16;52.30;98148.91;4482910;32;34387;-84
2021/12/29 03:19:32;;;;;;;;;;;;;;;8.02;52.56;98155.69;4483127;32;34619;-85
2021/12/29 03:21:59;;;;;;;;;;;;;;;7.43;54.63;98169.00;4483928;32;33574;-85
2021/12/29 03:24:26;;;;;;;;;;;;;;;7.26;55.80;98158.53;4483307;32;35280;-84
2021/12/29 03:26:53;;;;;;;;;;;;;;;8.41;52.43;98160.28;4483991;31;33963;-84
2021/12/29 03:29:21;;;;;;;;;;;;;;;7.93;53.32;98165.97;4483293;32;33502;-84
2021/12/29 03:31:50;;;;;;;;;;;;;;;8.21;53.01;98151.53;4482533;32;32737;-84
2021/12/29 03:34:17;;;;;;;;;;;;;;;7.47;54.97;98163.87;4483831;32;33599;-83
2021/12/29 03:36:44;;;;;;;;;;;;;;;7.30;55.51;98158.56;4483906;32;34392;-84
2021/12/29 03:39:12;;;;;;;;;;;;;;;8.20;52.67;98154.97;4482155;31;34371;-84
2021/12/29 03:41:39;;;;;;;;;;;;;;;8.88;51.39;98166.50;4482978;32;33447;-84
2021/12/29 03:44:06;;;;;;;;;;;;;;;9.69;49.42;98158.88;4469798;32;33706;-83
2021/12/29 03:46:36;;;;;;;;;;;;;;;10.02;48.50;98158.00;4483048;32;35110;-84
2021/12/29 03:49:03;;;;;;;;;;;;;;;9.38;49.20;98168.34;4483986;32;33629;-85
2021/12/29 03:51:30;;;;;;;;;;;;;;;10.30;47.73;98160.56;4483706;32;33502;-84
2021/12/29 03:53:58;;;;;;;;;;;;;;;10.06;47.76;98159.72;4483297;32;33624;-85
2021/12/29 03:56:25;;;;;;;;;;;;;;;10.55;46.78;98151.88;4483010;32;34119;-84
2021/12/29 03:58:52;;;;;;;;;;;;;;;9.33;49.59;98157.16;4483570;32;34695;-84
2021/12/29 04:01:23;;;;;;;;;;;;;;;10.38;46.80;98156.22;4483585;32;33296;-84
2021/12/29 04:03:50;;;;;;;;;;;;;;;10.42;46.78;98157.97;4483338;32;34020;-84
2021/12/29 04:06:19;;;;;;;;;;;;;;;10.46;46.54;98164.87;4483558;32;34064;-84
2021/12/29 04:08:47;;;;;;;;;;;;;;;10.95;45.54;98159.50;4483655;32;34485;-83
2021/12/29 04:11:14;;;;;;;;;;;;;;;11.05;45.40;98160.28;4467993;32;33484;-84
2021/12/29 04:13:43;;;;;;;;;;;;;;;10.48;46.27;98168.28;4471022;32;34983;-85
2021/12/29 04:16:16;;;;;;;;;;;;;;;10.75;46.02;98167.34;4483588;32;34357;-83
2021/12/29 04:18:55;;;;;;;;;;;;;;;11.15;45.25;98172.34;4483281;32;34856;-84
2021/12/29 04:21:23;;;;;;;;;;;;;;;11.34;44.84;98168.78;4475072;32;33558;-84
2021/12/29 04:23:50;;;;;;;;;;;;;;;11.59;44.11;98173.78;4482804;32;34189;-84
2021/12/29 04:26:19;;;;;;;;;;;;;;;11.87;43.48;98179.69;4482818;32;34118;-83
2021/12/29 04:28:47;;;;;;;;;;;;;;;11.91;43.41;98179.63;4483216;32;34364;-83
2021/12/29 04:31:14;;;;;;;;;;;;;;;11.97;43.28;98178.72;4483483;32;33310;-85
2021/12/29 04:33:41;;;;;;;;;;;;;;;12.18;42.93;98169.88;4483476;32;34290;-85
2021/12/29 04:36:09;;;;;;;;;;;;;;;12.01;42.89;98172.63;4483481;32;34264;-85
2021/12/29 04:38:36;;;;;;;;;;;;;;;11.79;43.03;98171.06;4483199;32;34220;-85
2021/12/29 04:41:03;;;;;;;;;;;;;;;11.14;44.21;98175.81;4482996;32;33576;-85
2021/12/29 04:43:30;;;;;;;;;;;;;;;11.54;43.28;98176.41;4483305;32;34295;-85
2021/12/29 04:45:58;;;;;;;;;;;;;;;11.68;43.03;98174.59;4483153;32;34414;-84
2021/12/29 04:48:28;;;;;;;;;;;;;;;11.81;43.03;98184.88;4483590;32;33561;-85
2021/12/29 04:51:11;;;;;;;;;;;;;;;12.05;42.67;98183.84;4482834;31;34082;-84
2021/12/29 04:53:39;;;;;;;;;;;;;;;11.99;42.69;98184.75;4482901;32;34042;-84
2021/12/29 04:56:06;;;;;;;;;;;;;;;11.98;42.61;98182.19;4483005;32;34393;-83
2021/12/29 04:58:33;;;;;;;;;;;;;;;12.07;42.25;98179.50;4483278;32;34525;-83
2021/12/29 05:01:00;;;;;;;;;;;;;;;12.06;42.13;98191.62;4481663;32;31929;-84
2021/12/29 05:03:28;;;;;;;;;;;;;;;11.84;42.59;98182.28;4483061;32;35037;-84
2021/12/29 05:08:24;;;;;;;;;;;;;;;12.07;42.23;98190.75;4482723;32;35316;-83
2021/12/29 05:08:43;;;;;;;;;;;;;;;12.18;42.12;98185.44;4482938;32;34340;-85
2021/12/29 05:11:11;;;;;;;;;;;;;;;12.11;42.14;98184.66;4481773;32;32210;-85
2021/12/29 05:13:39;;;;;;;;;;;;;;;11.89;42.71;98188.31;4483116;32;34226;-85
2021/12/29 05:16:06;;;;;;;;;;;;;;;11.80;42.79;98183.16;4482669;32;35338;-85
2021/12/29 05:18:36;;;;;;;;;;;;;;;12.23;42.03;98177.59;4483373;32;33813;-84
2021/12/29 05:21:03;;;;;;;;;;;;;;;11.93;42.52;98179.59;4481135;32;34155;-83
2021/12/29 05:23:31;;;;;;;;;;;;;;;12.21;41.94;98189.78;4481187;32;34031;-85
2021/12/29 05:25:58;;;;;;;;;;;;;;;12.31;41.84;98178.38;4482774;32;34544;-84
2021/12/29 05:28:26;;;;;;;;;;;;;;;12.46;41.69;98179.97;4482898;32;34964;-85
2021/12/29 05:30:53;;;;;;;;;;;;;;;12.43;41.58;98187.81;4482183;32;33144;-85
2021/12/29 05:33:21;;;;;;;;;;;;;;;12.43;41.53;98186.09;4481282;32;34981;-84
2021/12/29 05:35:48;;;;;;;;;;;;;;;12.52;41.21;98185.97;4482930;32;34526;-84
2021/12/29 05:38:16;;;;;;;;;;;;;;;10.96;44.23;98192.34;4482709;32;35123;-84
2021/12/29 05:40:43;;;;;;;;;;;;;;;11.57;42.78;98191.97;4482699;32;33136;-84
2021/12/29 05:43:10;;;;;;;;;;;;;;;11.89;41.99;98191.78;4482197;32;34189;-84
2021/12/29 05:45:37;;;;;;;;;;;;;;;12.08;41.72;98196.78;4482388;32;34254;-84
2021/12/29 05:48:05;;;;;;;;;;;;;;;12.03;41.95;98207.22;4482631;32;34539;-85
2021/12/29 05:50:32;;;;;;;;;;;;;;;12.36;41.40;98207.81;4482974;32;33054;-85
2021/12/29 05:53:00;;;;;;;;;;;;;;;11.44;42.95;98205.91;4482333;32;34091;-85
2021/12/29 05:55:27;;;;;;;;;;;;;;;11.49;43.12;98208.47;4482503;32;34105;-84
2021/12/29 05:57:55;;;;;;;;;;;;;;;11.58;42.73;98206.66;4481163;32;34389;-85
2021/12/29 06:00:23;;;;;;;;;;;;;;;11.63;42.74;98212.72;4481768;32;34816;-85
2021/12/29 06:02:51;;;;;;;;;;;;;;;10.17;45.86;98214.09;4481392;32;35066;-84
2021/12/29 06:05:18;;;;;;;;;;;;;;;11.15;43.85;98212.13;4481226;32;35061;-85
2021/12/29 06:07:45;;;;;;;;;;;;;;;11.13;43.89;98218.16;4482401;32;34110;-84
2021/12/29 06:10:13;;;;;;;;;;;;;;;10.66;44.59;98220.09;4481745;32;33420;-84
2021/12/29 06:12:40;;;;;;;;;;;;;;;10.73;44.95;98213.16;4482140;32;34872;-84
2021/12/29 06:15:08;;;;;;;;;;;;;;;11.25;43.94;98205.16;4480636;32;34054;-83
2021/12/29 06:17:36;;;;;;;;;;;;;;;11.53;43.12;98216.22;4481884;32;33447;-84
2021/12/29 06:20:04;;;;;;;;;;;;;;;11.44;43.12;98221.50;4481127;32;33314;-84
2021/12/29 06:22:31;;;;;;;;;;;;;;;11.09;44.03;98219.91;4480972;32;34840;-84
2021/12/29 06:25:01;;;;;;;;;;;;;;;10.47;45.45;98224.44;4481194;32;35318;-84
2021/12/29 06:27:28;;;;;;;;;;;;;;;10.99;44.15;98222.59;4481561;32;34997;-83
2021/12/29 06:29:55;;;;;;;;;;;;;;;10.70;44.82;98226.97;4481488;32;33664;-84
2021/12/29 06:32:23;;;;;;;;;;;;;;;10.82;44.83;98235.59;4482337;32;34506;-85
2021/12/29 06:34:50;;;;;;;;;;;;;;;10.26;46.06;98226.19;4482063;32;34287;-84
2021/12/29 06:37:17;;;;;;;;;;;;;;;10.08;46.67;98225.34;4481605;32;34405;-84
2021/12/29 06:39:45;;;;;;;;;;;;;;;9.93;47.00;98235.69;4482243;32;32686;-85
2021/12/29 06:42:13;;;;;;;;;;;;;;;10.12;46.79;98227.06;4482047;32;33745;-85
2021/12/29 06:44:40;;;;;;;;;;;;;;;9.60;48.23;98237.38;4481169;32;35380;-85
2021/12/29 06:47:08;;;;;;;;;;;;;;;10.38;46.24;98233.94;4479872;32;34878;-85
2021/12/29 06:49:35;;;;;;;;;;;;;;;10.52;45.80;98242.56;4482847;31;33130;-85
2021/12/29 06:52:03;;;;;;;;;;;;;;;10.62;45.59;98243.44;4484333;32;34034;-85
2021/12/29 06:54:30;;;;;;;;;;;;;;;10.45;46.21;98252.12;4483963;32;34129;-85
2021/12/29 06:56:57;;;;;;;;;;;;;;;10.56;45.82;98259.84;4484080;32;35053;-83
2021/12/29 06:59:25;;;;;;;;;;;;;;;10.16;46.74;98269.38;4482337;32;34092;-84
2021/12/29 07:01:52;;;;;;;;;;;;;;;10.64;45.88;98252.91;4483558;32;34126;-85
2021/12/29 07:04:20;;;;;;;;;;;;;;;10.39;46.17;98256.44;4483853;32;34464;-84
2021/12/29 07:06:47;;;;;;;;;;;;;;;10.66;45.18;98246.00;4484119;32;34651;-84
2021/12/29 07:09:14;;;;;;;;;;;;;;;9.74;46.89;98258.97;4483762;32;33619;-84
2021/12/29 07:11:41;;;;;;;;;;;;;;;9.73;47.52;98270.16;4483697;32;35005;-84
2021/12/29 07:14:09;;;;;;;;;;;;;;;9.12;48.80;98263.97;4484028;32;35119;-83
2021/12/29 07:16:38;;;;;;;;;;;;;;;9.27;48.39;98280.41;4482527;32;34265;-84
2021/12/29 07:19:05;;;;;;;;;;;;;;;9.95;46.96;98276.25;4482305;32;32832;-86
2021/12/29 07:21:33;;;;;;;;;;;;;;;9.30;48.86;98281.28;4483820;31;34067;-85
2021/12/29 07:24:00;;;;;;;;;;;;;;;9.90;47.19;98282.28;4483589;32;34308;-84
2021/12/29 07:26:31;;;;;;;;;;;;;;;9.38;48.88;98277.00;4483480;32;35151;-85
2021/12/29 07:28:58;;;;;;;;;;;;;;;10.12;46.92;98289.22;4483706;32;34346;-85
2021/12/29 07:31:27;;;;;;;;;;;;;;;9.66;48.00;98283.97;4483224;32;34639;-84
2021/12/29 07:34:14;;;;;;;;;;;;;;;9.57;47.78;98289.13;4483569;32;34249;-85
2021/12/29 07:36:41;;;;;;;;;;;;;;;9.16;49.26;98300.19;4483482;32;33937;-85
2021/12/29 07:39:12;;;;;;;;;;;;;;;9.74;48.04;98300.38;4483405;32;34042;-86
2021/12/29 07:41:40;;;;;;;;;;;;;;;8.64;50.44;98297.34;4483900;32;33783;-85
2021/12/29 07:44:08;;;;;;;;;;;;;;;8.65;50.35;98296.47;4484068;32;34130;-85
2021/12/29 07:46:35;;;;;;;;;;;;;;;7.43;53.90;98310.84;4482573;32;35174;-87
2021/12/29 07:49:03;;;;;;;;;;;;;;;7.20;54.66;98316.59;4483446;31;32923;-86
2021/12/29 07:51:30;;;;;;;;;;;;;;;7.53;54.29;98313.50;4483045;32;33932;-87
2021/12/29 07:53:59;;;;;;;;;;;;;;;8.33;52.11;98323.75;4472535;32;34975;-88
2021/12/29 07:56:27;;;;;;;;;;;;;;;8.71;50.72;98308.56;4483795;32;34105;-88
2021/12/29 07:58:54;;;;;;;;;;;;;;;9.19;49.72;98307.09;4482085;32;33467;-86
2021/12/29 08:01:22;;;;;;;;;;;;;;;8.68;50.54;98314.59;4481183;32;34324;-84
2021/12/29 08:03:49;;;;;;;;;;;;;;;9.42;49.19;98305.47;4473340;32;35347;-86
2021/12/29 08:06:17;;;;;;;;;;;;;;;9.96;47.62;98313.34;4483717;32;34101;-85
2021/12/29 08:08:44;;;;;;;;;;;;;;;9.81;47.98;98313.31;4483192;32;33809;-85
2021/12/29 08:11:12;;;;;;;;;;;;;;;10.08;47.33;98303.03;4483345;32;34241;-84
2021/12/29 08:13:39;;;;;;;;;;;;;;;10.38;46.88;98311.69;4483303;32;34285;-86
2021/12/29 08:16:06;;;;;;;;;;;;;;;10.70;45.93;98312.53;4482473;32;34674;-87
2021/12/29 08:18:34;;;;;;;;;;;;;;;10.30;46.53;98318.59;4481592;32;34403;-86
2021/12/29 08:21:01;;;;;;;;;;;;;;;10.60;46.09;98313.41;4483700;32;35037;-86
2021/12/29 08:23:29;;;;;;;;;;;;;;;10.74;45.85;98320.31;4483230;32;35231;-85
2021/12/29 08:25:56;;;;;;;;;;;;;;;10.01;46.78;98334.09;4483630;32;34517;-85
2021/12/29 08:28:24;;;;;;;;;;;;;;;9.63;47.66;98334.88;4483808;32;34306;-87
2021/12/29 08:30:51;;;;;;;;;;;;;;;9.32;48.71;98333.88;4482002;32;32672;-86
2021/12/29 08:33:19;;;;;;;;;;;;;;;10.95;45.18;98344.47;4483246;31;35317;-86
2021/12/29 08:35:46;;;;;;;;;;;;;;;11.57;43.86;98336.50;4483176;32;34828;-85
2021/12/29 08:38:14;;;;;;;;;;;;;;;11.51;43.94;98342.56;4482003;32;33339;-86
2021/12/29 08:40:41;;;;;;;;;;;;;;;11.19;44.57;98338.34;4474593;32;35051;-87
2021/12/29 08:43:08;;;;;;;;;;;;;;;11.24;44.25;98353.03;4479501;32;34375;-85
2021/12/29 08:45:37;;;;;;;;;;;;;;;11.17;44.44;98347.87;4483571;32;34997;-86
2021/12/29 08:48:05;;;;;;;;;;;;;;;11.53;43.90;98351.22;4482564;32;34123;-86
2021/12/29 08:50:32;;;;;;;;;;;;;;;11.72;43.62;98356.31;4483369;32;34166;-86
2021/12/29 08:53:02;;;;;;;;;;;;;;;11.78;43.48;98361.47;4483029;32;34273;-85
2021/12/29 08:55:30;;;;;;;;;;;;;;;11.88;43.20;98364.06;4482585;32;33911;-87
2021/12/29 08:57:57;;;;;;;;;;;;;;;10.87;44.58;98368.66;4483250;32;32923;-86
2021/12/29 09:00:25;;;;;;;;;;;;;;;11.68;43.00;98361.53;4483410;32;32734;-87
2021/12/29 09:02:52;;;;;;;;;;;;;;;10.62;45.40;98365.25;4482269;32;35096;-87
2021/12/29 09:05:20;;;;;;;;;;;;;;;10.57;45.78;98357.50;4482923;32;34728;-86
2021/12/29 09:07:47;;;;;;;;;;;;;;;9.85;47.05;98357.38;4482963;32;33632;-87
2021/12/29 09:10:15;;;;;;;;;;;;;;;10.56;45.78;98354.87;4481722;32;33884;-83
2021/12/29 09:12:43;;;;;;;;;;;;;;;10.83;45.34;98356.56;4482234;32;34202;-87
2021/12/29 09:15:11;;;;;;;;;;;;;;;10.65;45.62;98358.34;4483289;32;34906;-87
2021/12/29 09:17:39;;;;;;;;;;;;;;;11.05;45.05;98357.41;4482797;32;34280;-87
2021/12/29 09:20:13;;;;;;;;;;;;;;;11.33;44.70;98350.44;4482584;32;34055;-84
2021/12/29 09:22:41;;;;;;;;;;;;;;;11.67;43.91;98341.63;4482185;32;35399;-86
2021/12/29 09:25:08;;;;;;;;;;;;;;;12.00;43.18;98341.47;4483096;32;33670;-85
2021/12/29 09:27:35;;;;;;;;;;;;;;;12.35;42.53;98342.13;4483090;32;33553;-89
2021/12/29 09:30:03;;;;;;;;;;;;;;;12.52;42.30;98328.97;4482606;32;35034;-87
2021/12/29 09:32:31;;;;;;;;;;;;;;;12.10;42.82;98327.56;4483161;32;34387;-85
2021/12/29 09:34:59;;;;;;;;;;;;;;;11.30;44.09;98329.69;4482264;32;34360;-87
2021/12/29 09:37:28;;;;;;;;;;;;;;;11.74;43.20;98320.81;4483111;32;33678;-84
2021/12/29 09:39:55;;;;;;;;;;;;;;;11.86;43.14;98323.41;4482706;32;34512;-83
2021/12/29 09:42:22;;;;;;;;;;;;;;;11.73;43.48;98313.91;4482669;32;35794;-86
2021/12/29 09:44:50;;;;;;;;;;;;;;;12.02;43.08;98314.63;4482787;32;33952;-87
2021/12/29 09:47:19;;;;;;;;;;;;;;;12.30;42.64;98319.63;4482389;32;33168;-86
2021/12/29 09:49:46;;;;;;;;;;;;;;;12.08;42.74;98309.37;4482139;32;35024;-85
2021/12/29 09:52:13;;;;;;;;;;;;;;;11.92;43.00;98308.63;4481356;32;34134;-84
2021/12/29 09:54:40;;;;;;;;;;;;;;;11.91;43.26;98311.22;4480817;32;34590;-86
2021/12/29 09:57:08;;;;;;;;;;;;;;;12.11;42.99;98314.56;4481871;32;34197;-87
2021/12/29 09:59:35;;;;;;;;;;;;;;;12.53;42.40;98301.22;4482133;32;33989;-86
2021/12/29 10:02:07;;;;;;;;;;;;;;;12.34;42.44;98300.53;4481344;32;34200;-85
2021/12/29 10:04:36;;;;;;;;;;;;;;;12.28;42.66;98308.37;4481942;32;35037;-86
2021/12/29 10:07:12;;;;;;;;;;;;;;;12.07;42.70;98299.84;4482346;32;33432;-86
2021/12/29 10:09:40;;;;;;;;;;;;;;;12.16;42.68;98305.00;4481830;32;33787;-84
2021/12/29 10:12:09;;;;;;;;;;;;;;;12.37;42.27;98298.75;4482471;32;34782;-84
2021/12/29 10:14:36;;;;;;;;;;;;;;;12.69;41.98;98294.13;4482020;32;34202;-87
2021/12/29 10:17:10;;;;;;;;;;;;;;;13.04;41.29;98296.41;4480389;32;33578;-86
2021/12/29 10:19:38;;;;;;;;;;;;;;;12.82;41.50;98294.00;4481854;32;35051;-86
2021/12/29 10:22:05;;;;;;;;;;;;;;;12.76;41.79;98301.00;4480783;32;34190;-87
2021/12/29 10:24:33;;;;;;;;;;;;;;;12.76;41.75;98299.25;4483018;32;34818;-86
2021/12/29 10:27:00;;;;;;;;;;;;;;;12.70;41.87;98295.88;4481656;32;33406;-83
2021/12/29 10:29:27;;;;;;;;;;;;;;;12.71;41.82;98300.19;4483815;32;34355;-83
2021/12/29 10:31:58;;;;;;;;;;;;;;;12.69;41.88;98302.81;4484281;32;34269;-85
2021/12/29 10:34:29;;;;;;;;;;;;;;;12.43;42.26;98310.00;4484445;32;34890;-83
2021/12/29 10:36:57;;;;;;;;;;;;;;;12.54;42.31;98306.44;4483265;32;33146;-86
2021/12/29 10:39:25;;;;;;;;;;;;;;;12.56;42.07;98307.25;4483442;32;33733;-83
2021/12/29 10:41:58;;;;;;;;;;;;;;;12.68;42.19;98308.03;4479402;32;34145;-86
2021/12/29 10:44:27;;;;;;;;;;;;;;;12.03;43.26;98311.16;4476432;32;34001;-84
2021/12/29 10:46:56;;;;;;;;;;;;;;;11.69;44.00;98306.12;4483786;32;33505;-84
2021/12/29 10:49:25;;;;;;;;;;;;;;;12.26;42.96;98317.91;4481864;31;34019;-84
2021/12/29 10:51:54;;;;;;;;;;;;;;;12.49;42.31;98303.00;4483491;32;35107;-85
2021/12/29 10:54:24;;;;;;;;;;;;;;;12.47;42.49;98301.31;4476552;32;34229;-87
2021/12/29 10:57:17;;;;;;;;;;;;;;;12.53;42.51;98302.09;4483451;32;33159;-87
2021/12/29 10:59:44;;;;;;;;;;;;;;;12.72;41.92;98304.53;4479151;32;33824;-85
2021/12/29 11:02:11;;;;;;;;;;;;;;;12.40;42.99;98309.13;4475419;32;35182;-87
2021/12/29 11:04:39;;;;;;;;;;;;;;;11.77;44.98;98318.22;4483896;32;34937;-87
2021/12/29 11:07:07;;;;;;;;;;;;;;;12.46;43.12;98315.16;4483771;32;33301;-87
2021/12/29 11:09:35;;;;;;;;;;;;;;;12.12;43.54;98307.59;4483063;32;35129;-84
2021/12/29 11:12:10;;;;;;;;;;;;;;;12.47;43.46;98306.50;4482591;32;35203;-85
2021/12/29 11:14:42;;;;;;;;;;;;;;;12.34;43.30;98309.19;4483180;32;34355;-83
2021/12/29 11:17:14;;;;;;;;;;;;;;;12.09;43.98;98310.25;4483587;32;33816;-84
2021/12/29 11:19:53;;;;;;;;;;;;;;;11.58;44.93;98315.69;4483726;32;34023;-84
2021/12/29 11:22:21;;;;;;;;;;;;;;;11.85;44.44;98311.25;4483868;32;35209;-85
2021/12/29 11:24:52;;;;;;;;;;;;;;;11.26;46.26;98315.84;4483132;32;34602;-85
2021/12/29 11:27:19;;;;;;;;;;;;;;;11.79;45.31;98316.47;4478307;32;34292;-86
2021/12/29 11:29:47;;;;;;;;;;;;;;;11.28;46.44;98315.84;4483635;32;35120;-87
2021/12/29 11:32:18;;;;;;;;;;;;;;;11.08;46.24;98311.59;4483249;32;34363;-86
2021/12/29 11:34:45;;;;;;;;;;;;;;;11.18;46.07;98313.28;4483661;32;34992;-88
2021/12/29 11:37:13;;;;;;;;;;;;;;;10.75;47.54;98312.50;4482477;32;34325;-86
2021/12/29 11:39:41;;;;;;;;;;;;;;;10.92;47.20;98317.69;4483588;32;34946;-85
2021/12/29 11:42:09;;;;;;;;;;;;;;;11.10;46.91;98312.47;4481812;32;34032;-86
2021/12/29 11:44:36;;;;;;;;;;;;;;;11.36;45.95;98316.66;4482576;32;33806;-88
2021/12/29 11:47:04;;;;;;;;;;;;;;;11.03;46.79;98313.34;4483972;32;34010;-85
2021/12/29 11:49:32;;;;;;;;;;;;;;;11.21;46.39;98322.78;4483816;31;34992;-89
2021/12/29 11:52:02;;;;;;;;;;;;;;;11.18;46.20;98323.66;4483358;32;34039;-86
2021/12/29 11:54:40;;;;;;;;;;;;;;;11.68;45.35;98334.72;4483283;32;34344;-90
2021/12/29 11:57:11;;;;;;;;;;;;;;;11.48;45.94;98332.22;4469435;32;33971;-88
2021/12/29 11:59:38;;;;;;;;;;;;;;;11.53;45.77;98332.19;4481981;32;33938;-91
2021/12/29 12:02:06;;;;;;;;;;;;;;;11.28;46.27;98329.66;4481251;32;33831;-85
2021/12/29 12:04:34;;;;;;;;;;;;;;;11.39;46.28;98332.22;4481023;32;34301;-85
2021/12/29 12:07:10;;;;;;;;;;;;;;;11.45;46.31;98338.25;4481033;32;33180;-87
2021/12/29 12:09:44;;;;;;;;;;;;;;;11.46;46.10;98339.13;4483570;32;34227;-86
2021/12/29 12:12:12;;;;;;;;;;;;;;;10.35;48.51;98343.66;4481157;32;34313;-84
2021/12/29 12:14:47;;;;;;;;;;;;;;;11.03;47.27;98347.06;4477892;32;34190;-83
2021/12/29 12:17:15;;;;;;;;;;;;;;;11.27;47.01;98345.25;4478423;32;34228;-83
2021/12/29 12:19:43;;;;;;;;;;;;;;;11.60;46.62;98337.34;4467926;32;35755;-84
2021/12/29 12:22:11;;;;;;;;;;;;;;;11.78;46.28;98340.69;4478200;32;35371;-84
2021/12/29 12:24:39;;;;;;;;;;;;;;;11.83;45.68;98341.56;4483405;32;35017;-82
2021/12/29 12:27:11;;;;;;;;;;;;;;;11.76;45.96;98348.50;4482209;32;33712;-84
2021/12/29 12:29:39;;;;;;;;;;;;;;;11.74;46.14;98345.03;4482090;32;33650;-83
2021/12/29 12:32:07;;;;;;;;;;;;;;;11.65;46.30;98347.69;4483206;32;35238;-84
2021/12/29 12:34:35;;;;;;;;;;;;;;;11.87;46.33;98344.16;4483338;32;34595;-83
2021/12/29 12:37:12;;;;;;;;;;;;;;;12.13;45.73;98343.12;4483349;32;33478;-85
2021/12/29 12:39:39;;;;;;;;;;;;;;;9.61;51.57;98358.12;4482618;32;34280;-83
2021/12/29 12:42:06;;;;;;;;;;;;;;;10.18;51.41;98355.69;4483354;32;34469;-82
2021/12/29 12:44:35;;;;;;;;;;;;;;;11.09;49.20;98348.75;4481651;32;34980;-84
2021/12/29 12:47:12;;;;;;;;;;;;;;;10.26;51.09;98368.69;4481417;32;33595;-84
2021/12/29 12:49:50;;;;;;;;;;;;;;;10.50;49.59;98362.66;4482755;31;33831;-83
2021/12/29 12:52:19;;;;;;;;;;;;;;;10.85;49.08;98349.69;4473470;32;34119;-81
2021/12/29 12:54:51;;;;;;;;;;;;;;;11.08;48.66;98353.09;4466507;32;34068;-80
2021/12/29 12:57:27;;;;;;;;;;;;;;;11.34;47.87;98355.59;4467543;32;33269;-81
2021/12/29 12:59:58;;;;;;;;;;;;;;;11.80;46.83;98364.94;4478450;32;34577;-81
2021/12/29 13:02:25;;;;;;;;;;;;;;;12.13;45.84;98364.78;4481880;32;34067;-83